sensor_id;sensor_type;location;lat;lon;timestamp;temperature;humidity
8707;DHT22;4390;49.302;9.306;2022-12-29T00:00:06;8.10;93.50
8707;DHT22;4390;49.302;9.306;2022-12-29T00:02:40;8.00;93.00
8707;DHT22;4390;49.302;9.306;2022-12-29T00:05:07;8.00;93.30
8707;DHT22;4390;49.302;9.306;2022-12-29T00:07:33;8.20;92.60
8707;DHT22;4390;49.302;9.306;2022-12-29T00:10:00;8.30;92.30
8707;DHT22;4390;49.302;9.306;2022-12-29T00:12:27;8.20;92.40
8707;DHT22;4390;49.302;9.306;2022-12-29T00:15:14;8.10;92.90
8707;DHT22;4390;49.302;9.306;2022-12-29T00:17:59;8.20;92.90
8707;DHT22;4390;49.302;9.306;2022-12-29T00:20:26;8.20;93.40
8707;DHT22;4390;49.302;9.306;2022-12-29T00:23:11;8.20;93.60
8707;DHT22;4390;49.302;9.306;2022-12-29T00:25:58;8.20;93.80
8707;DHT22;4390;49.302;9.306;2022-12-29T00:28:44;7.90;94.70
8707;DHT22;4390;49.302;9.306;2022-12-29T00:31:29;7.70;95.30
8707;DHT22;4390;49.302;9.306;2022-12-29T00:34:28;7.60;95.70
8707;DHT22;4390;49.302;9.306;2022-12-29T00:37:14;7.50;96.10
8707;DHT22;4390;49.302;9.306;2022-12-29T00:39:40;7.40;96.40
8707;DHT22;4390;49.302;9.306;2022-12-29T00:42:26;7.40;96.60
8707;DHT22;4390;49.302;9.306;2022-12-29T00:45:11;7.40;96.80
8707;DHT22;4390;49.302;9.306;2022-12-29T00:47:38;7.40;96.70
8707;DHT22;4390;49.302;9.306;2022-12-29T00:50:05;7.40;96.80
8707;DHT22;4390;49.302;9.306;2022-12-29T00:52:32;7.30;97.00
8707;DHT22;4390;49.302;9.306;2022-12-29T00:54:59;7.30;97.20
8707;DHT22;4390;49.302;9.306;2022-12-29T00:57:26;7.30;97.40
8707;DHT22;4390;49.302;9.306;2022-12-29T00:59:53;7.20;97.50
8707;DHT22;4390;49.302;9.306;2022-12-29T01:02:19;7.20;97.70
8707;DHT22;4390;49.302;9.306;2022-12-29T01:04:46;7.20;97.90
8707;DHT22;4390;49.302;9.306;2022-12-29T01:07:15;7.20;98.10
8707;DHT22;4390;49.302;9.306;2022-12-29T01:09:43;7.20;97.80
8707;DHT22;4390;49.302;9.306;2022-12-29T01:12:29;7.30;97.90
8707;DHT22;4390;49.302;9.306;2022-12-29T01:15:10;7.20;98.00
8707;DHT22;4390;49.302;9.306;2022-12-29T01:17:37;7.40;98.00
8707;DHT22;4390;49.302;9.306;2022-12-29T01:20:04;7.50;97.60
8707;DHT22;4390;49.302;9.306;2022-12-29T01:22:32;7.30;98.20
8707;DHT22;4390;49.302;9.306;2022-12-29T01:24:59;7.20;98.30
8707;DHT22;4390;49.302;9.306;2022-12-29T01:27:26;7.30;98.30
8707;DHT22;4390;49.302;9.306;2022-12-29T01:29:52;7.40;98.30
8707;DHT22;4390;49.302;9.306;2022-12-29T01:32:19;7.40;98.30
8707;DHT22;4390;49.302;9.306;2022-12-29T01:34:46;7.40;98.30
8707;DHT22;4390;49.302;9.306;2022-12-29T01:37:12;7.60;97.60
8707;DHT22;4390;49.302;9.306;2022-12-29T01:39:40;7.70;97.30
8707;DHT22;4390;49.302;9.306;2022-12-29T01:42:16;7.90;96.80
8707;DHT22;4390;49.302;9.306;2022-12-29T01:47:26;8.10;97.00
8707;DHT22;4390;49.302;9.306;2022-12-29T01:49:58;8.10;97.40
8707;DHT22;4390;49.302;9.306;2022-12-29T01:52:27;8.00;97.80
8707;DHT22;4390;49.302;9.306;2022-12-29T01:54:56;7.90;98.30
8707;DHT22;4390;49.302;9.306;2022-12-29T01:57:27;8.10;98.10
8707;DHT22;4390;49.302;9.306;2022-12-29T02:00:00;7.90;98.30
8707;DHT22;4390;49.302;9.306;2022-12-29T02:02:39;8.00;98.30
8707;DHT22;4390;49.302;9.306;2022-12-29T02:05:11;7.90;98.30
8707;DHT22;4390;49.302;9.306;2022-12-29T02:07:40;7.80;98.30
8707;DHT22;4390;49.302;9.306;2022-12-29T02:10:09;7.70;98.30
8707;DHT22;4390;49.302;9.306;2022-12-29T02:12:36;7.60;98.30
8707;DHT22;4390;49.302;9.306;2022-12-29T02:15:03;7.70;98.30
8707;DHT22;4390;49.302;9.306;2022-12-29T02:29:37;7.70;98.30
8707;DHT22;4390;49.302;9.306;2022-12-29T02:32:29;7.70;98.30
8707;DHT22;4390;49.302;9.306;2022-12-29T02:35:16;7.80;98.30
8707;DHT22;4390;49.302;9.306;2022-12-29T02:37:58;7.80;98.30
8707;DHT22;4390;49.302;9.306;2022-12-29T02:40:46;8.10;98.30
8707;DHT22;4390;49.302;9.306;2022-12-29T02:43:26;8.20;98.30
8707;DHT22;4390;49.302;9.306;2022-12-29T02:46:07;8.00;98.30
8707;DHT22;4390;49.302;9.306;2022-12-29T02:48:49;8.10;98.30
8707;DHT22;4390;49.302;9.306;2022-12-29T02:51:29;8.10;98.30
8707;DHT22;4390;49.302;9.306;2022-12-29T02:53:59;8.20;98.30
8707;DHT22;4390;49.302;9.306;2022-12-29T02:56:45;8.30;98.30
8707;DHT22;4390;49.302;9.306;2022-12-29T02:59:12;8.40;98.30
8707;DHT22;4390;49.302;9.306;2022-12-29T03:02:02;8.50;98.30
8707;DHT22;4390;49.302;9.306;2022-12-29T03:19:17;8.50;98.30
8707;DHT22;4390;49.302;9.306;2022-12-29T03:21:50;8.40;98.30
8707;DHT22;4390;49.302;9.306;2022-12-29T03:24:44;8.50;98.30
8707;DHT22;4390;49.302;9.306;2022-12-29T03:27:16;8.60;98.30
8707;DHT22;4390;49.302;9.306;2022-12-29T03:29:47;8.60;98.30
8707;DHT22;4390;49.302;9.306;2022-12-29T03:32:22;8.40;98.30
8707;DHT22;4390;49.302;9.306;2022-12-29T03:34:50;8.50;98.30
8707;DHT22;4390;49.302;9.306;2022-12-29T03:37:19;8.60;98.10
8707;DHT22;4390;49.302;9.306;2022-12-29T03:39:47;8.80;97.70
8707;DHT22;4390;49.302;9.306;2022-12-29T03:42:18;8.80;97.50
8707;DHT22;4390;49.302;9.306;2022-12-29T03:44:46;8.70;97.60
8707;DHT22;4390;49.302;9.306;2022-12-29T03:47:14;8.70;97.80
8707;DHT22;4390;49.302;9.306;2022-12-29T03:49:44;8.40;98.30
8707;DHT22;4390;49.302;9.306;2022-12-29T03:52:11;8.40;98.30
8707;DHT22;4390;49.302;9.306;2022-12-29T03:54:42;8.40;98.30
8707;DHT22;4390;49.302;9.306;2022-12-29T03:57:10;8.30;98.30
8707;DHT22;4390;49.302;9.306;2022-12-29T03:59:55;8.40;98.30
8707;DHT22;4390;49.302;9.306;2022-12-29T04:02:22;8.50;97.90
8707;DHT22;4390;49.302;9.306;2022-12-29T04:04:51;8.70;97.60
8707;DHT22;4390;49.302;9.306;2022-12-29T04:07:18;8.70;97.60
8707;DHT22;4390;49.302;9.306;2022-12-29T04:09:45;8.60;97.60
8707;DHT22;4390;49.302;9.306;2022-12-29T04:12:17;8.60;97.40
8707;DHT22;4390;49.302;9.306;2022-12-29T04:14:44;8.70;97.50
8707;DHT22;4390;49.302;9.306;2022-12-29T04:17:11;8.70;97.60
8707;DHT22;4390;49.302;9.306;2022-12-29T04:19:38;8.60;97.90
8707;DHT22;4390;49.302;9.306;2022-12-29T04:22:05;8.60;97.60
8707;DHT22;4390;49.302;9.306;2022-12-29T04:24:33;8.50;97.80
8707;DHT22;4390;49.302;9.306;2022-12-29T04:27:00;8.40;98.30
8707;DHT22;4390;49.302;9.306;2022-12-29T04:29:45;8.20;98.30
8707;DHT22;4390;49.302;9.306;2022-12-29T04:32:44;8.00;98.30
8707;DHT22;4390;49.302;9.306;2022-12-29T04:35:11;7.90;98.30
8707;DHT22;4390;49.302;9.306;2022-12-29T04:37:38;7.70;98.30
8707;DHT22;4390;49.302;9.306;2022-12-29T04:40:06;7.60;98.30
8707;DHT22;4390;49.302;9.306;2022-12-29T04:42:33;7.60;98.30
8707;DHT22;4390;49.302;9.306;2022-12-29T04:45:00;7.60;98.30
8707;DHT22;4390;49.302;9.306;2022-12-29T04:47:35;7.60;98.30
8707;DHT22;4390;49.302;9.306;2022-12-29T04:50:21;7.60;98.30
8707;DHT22;4390;49.302;9.306;2022-12-29T04:52:53;7.50;98.30
8707;DHT22;4390;49.302;9.306;2022-12-29T04:55:20;7.50;98.30
8707;DHT22;4390;49.302;9.306;2022-12-29T04:57:47;7.50;98.30
8707;DHT22;4390;49.302;9.306;2022-12-29T05:00:17;7.50;98.30
8707;DHT22;4390;49.302;9.306;2022-12-29T05:02:44;7.60;98.30
8707;DHT22;4390;49.302;9.306;2022-12-29T05:05:11;7.70;98.30
8707;DHT22;4390;49.302;9.306;2022-12-29T05:07:42;7.90;98.30
8707;DHT22;4390;49.302;9.306;2022-12-29T05:10:09;8.20;97.60
8707;DHT22;4390;49.302;9.306;2022-12-29T05:12:37;8.10;98.00
8707;DHT22;4390;49.302;9.306;2022-12-29T05:15:05;8.00;98.30
8707;DHT22;4390;49.302;9.306;2022-12-29T05:17:33;8.00;98.30
8707;DHT22;4390;49.302;9.306;2022-12-29T05:20:00;8.00;98.30
8707;DHT22;4390;49.302;9.306;2022-12-29T05:22:27;8.00;98.30
8707;DHT22;4390;49.302;9.306;2022-12-29T05:24:55;8.10;97.90
8707;DHT22;4390;49.302;9.306;2022-12-29T05:27:22;8.30;97.10
8707;DHT22;4390;49.302;9.306;2022-12-29T05:30:21;8.40;96.40
8707;DHT22;4390;49.302;9.306;2022-12-29T05:32:48;8.60;96.10
8707;DHT22;4390;49.302;9.306;2022-12-29T05:35:16;8.70;95.80
8707;DHT22;4390;49.302;9.306;2022-12-29T05:37:43;8.80;95.40
8707;DHT22;4390;49.302;9.306;2022-12-29T05:40:10;8.90;95.60
8707;DHT22;4390;49.302;9.306;2022-12-29T05:42:37;8.90;95.10
8707;DHT22;4390;49.302;9.306;2022-12-29T05:45:22;9.00;94.60
8707;DHT22;4390;49.302;9.306;2022-12-29T05:48:04;9.00;94.80
8707;DHT22;4390;49.302;9.306;2022-12-29T05:50:49;9.20;94.40
8707;DHT22;4390;49.302;9.306;2022-12-29T05:53:22;9.20;93.90
8707;DHT22;4390;49.302;9.306;2022-12-29T05:55:49;9.20;94.30
8707;DHT22;4390;49.302;9.306;2022-12-29T05:58:17;9.10;94.20
8707;DHT22;4390;49.302;9.306;2022-12-29T06:00:44;9.10;94.10
8707;DHT22;4390;49.302;9.306;2022-12-29T06:03:11;9.10;94.50
8707;DHT22;4390;49.302;9.306;2022-12-29T06:05:38;9.20;93.90
8707;DHT22;4390;49.302;9.306;2022-12-29T06:08:05;9.30;94.00
8707;DHT22;4390;49.302;9.306;2022-12-29T06:10:33;9.30;93.60
8707;DHT22;4390;49.302;9.306;2022-12-29T06:13:04;9.30;93.40
8707;DHT22;4390;49.302;9.306;2022-12-29T06:15:35;9.30;93.60
8707;DHT22;4390;49.302;9.306;2022-12-29T06:18:05;9.30;93.80
8707;DHT22;4390;49.302;9.306;2022-12-29T06:20:33;9.30;94.00
8707;DHT22;4390;49.302;9.306;2022-12-29T06:23:02;9.40;94.00
8707;DHT22;4390;49.302;9.306;2022-12-29T06:25:30;9.50;93.50
8707;DHT22;4390;49.302;9.306;2022-12-29T06:27:58;9.40;93.90
8707;DHT22;4390;49.302;9.306;2022-12-29T06:30:25;9.40;94.00
8707;DHT22;4390;49.302;9.306;2022-12-29T06:32:52;9.40;93.70
8707;DHT22;4390;49.302;9.306;2022-12-29T06:35:20;9.40;93.60
8707;DHT22;4390;49.302;9.306;2022-12-29T06:37:50;9.40;93.80
8707;DHT22;4390;49.302;9.306;2022-12-29T06:40:17;9.40;94.10
8707;DHT22;4390;49.302;9.306;2022-12-29T06:43:07;9.60;93.50
8707;DHT22;4390;49.302;9.306;2022-12-29T06:45:53;9.50;93.60
8707;DHT22;4390;49.302;9.306;2022-12-29T06:48:19;9.30;94.70
8707;DHT22;4390;49.302;9.306;2022-12-29T06:50:46;9.20;94.90
8707;DHT22;4390;49.302;9.306;2022-12-29T06:53:13;9.20;94.90
8707;DHT22;4390;49.302;9.306;2022-12-29T06:55:41;9.00;95.50
8707;DHT22;4390;49.302;9.306;2022-12-29T06:58:08;9.00;95.50
8707;DHT22;4390;49.302;9.306;2022-12-29T07:00:35;8.80;96.30
8707;DHT22;4390;49.302;9.306;2022-12-29T07:03:01;8.60;97.00
8707;DHT22;4390;49.302;9.306;2022-12-29T07:05:28;8.60;97.20
8707;DHT22;4390;49.302;9.306;2022-12-29T07:07:58;8.70;96.80
8707;DHT22;4390;49.302;9.306;2022-12-29T07:10:24;8.80;96.50
8707;DHT22;4390;49.302;9.306;2022-12-29T07:12:51;8.60;97.30
8707;DHT22;4390;49.302;9.306;2022-12-29T07:15:18;8.50;97.80
8707;DHT22;4390;49.302;9.306;2022-12-29T07:17:44;8.40;98.20
8707;DHT22;4390;49.302;9.306;2022-12-29T07:20:11;8.40;98.20
8707;DHT22;4390;49.302;9.306;2022-12-29T07:22:38;8.30;98.30
8707;DHT22;4390;49.302;9.306;2022-12-29T07:25:05;8.30;98.30
8707;DHT22;4390;49.302;9.306;2022-12-29T07:27:32;8.30;98.30
8707;DHT22;4390;49.302;9.306;2022-12-29T07:29:59;8.30;98.30
8707;DHT22;4390;49.302;9.306;2022-12-29T07:32:25;8.30;98.30
8707;DHT22;4390;49.302;9.306;2022-12-29T07:34:52;8.30;98.30
8707;DHT22;4390;49.302;9.306;2022-12-29T07:37:19;8.30;98.30
8707;DHT22;4390;49.302;9.306;2022-12-29T07:39:46;8.30;98.30
8707;DHT22;4390;49.302;9.306;2022-12-29T07:42:13;8.30;98.30
8707;DHT22;4390;49.302;9.306;2022-12-29T07:44:42;8.50;98.10
8707;DHT22;4390;49.302;9.306;2022-12-29T07:47:15;8.60;97.70
8707;DHT22;4390;49.302;9.306;2022-12-29T07:49:42;8.70;97.90
8707;DHT22;4390;49.302;9.306;2022-12-29T07:52:09;8.80;97.40
8707;DHT22;4390;49.302;9.306;2022-12-29T07:54:35;9.00;96.70
8707;DHT22;4390;49.302;9.306;2022-12-29T07:57:03;9.20;95.90
8707;DHT22;4390;49.302;9.306;2022-12-29T07:59:30;9.30;95.60
8707;DHT22;4390;49.302;9.306;2022-12-29T08:01:57;9.40;95.20
8707;DHT22;4390;49.302;9.306;2022-12-29T08:04:24;9.60;94.80
8707;DHT22;4390;49.302;9.306;2022-12-29T08:06:50;9.60;94.80
8707;DHT22;4390;49.302;9.306;2022-12-29T08:09:17;9.70;94.60
8707;DHT22;4390;49.302;9.306;2022-12-29T08:11:49;9.80;94.20
8707;DHT22;4390;49.302;9.306;2022-12-29T08:14:16;9.80;94.10
8707;DHT22;4390;49.302;9.306;2022-12-29T08:16:43;9.90;93.80
8707;DHT22;4390;49.302;9.306;2022-12-29T08:19:11;9.90;93.70
8707;DHT22;4390;49.302;9.306;2022-12-29T08:21:39;9.80;93.50
8707;DHT22;4390;49.302;9.306;2022-12-29T08:24:06;9.90;93.60
8707;DHT22;4390;49.302;9.306;2022-12-29T08:26:34;10.00;93.30
8707;DHT22;4390;49.302;9.306;2022-12-29T08:29:00;9.90;93.20
8707;DHT22;4390;49.302;9.306;2022-12-29T08:31:27;10.00;93.40
8707;DHT22;4390;49.302;9.306;2022-12-29T08:33:54;9.90;93.40
8707;DHT22;4390;49.302;9.306;2022-12-29T08:36:21;10.00;93.10
8707;DHT22;4390;49.302;9.306;2022-12-29T08:38:47;10.10;92.70
8707;DHT22;4390;49.302;9.306;2022-12-29T08:41:14;10.10;92.60
8707;DHT22;4390;49.302;9.306;2022-12-29T08:43:41;10.10;92.90
8707;DHT22;4390;49.302;9.306;2022-12-29T08:46:07;10.20;92.60
8707;DHT22;4390;49.302;9.306;2022-12-29T08:48:34;10.30;92.30
8707;DHT22;4390;49.302;9.306;2022-12-29T08:51:01;10.40;91.90
8707;DHT22;4390;49.302;9.306;2022-12-29T08:53:28;10.40;91.90
8707;DHT22;4390;49.302;9.306;2022-12-29T08:55:57;10.30;92.00
8707;DHT22;4390;49.302;9.306;2022-12-29T08:58:34;10.30;92.00
8707;DHT22;4390;49.302;9.306;2022-12-29T09:01:01;10.30;92.00
8707;DHT22;4390;49.302;9.306;2022-12-29T09:03:27;10.30;92.20
8707;DHT22;4390;49.302;9.306;2022-12-29T09:06:16;10.40;91.70
8707;DHT22;4390;49.302;9.306;2022-12-29T09:08:43;10.50;91.70
8707;DHT22;4390;49.302;9.306;2022-12-29T09:11:16;10.50;91.70
8707;DHT22;4390;49.302;9.306;2022-12-29T09:13:43;10.40;91.80
8707;DHT22;4390;49.302;9.306;2022-12-29T09:16:09;10.40;91.90
8707;DHT22;4390;49.302;9.306;2022-12-29T09:18:37;10.40;91.70
8707;DHT22;4390;49.302;9.306;2022-12-29T09:21:05;10.30;91.50
8707;DHT22;4390;49.302;9.306;2022-12-29T09:23:33;10.30;91.40
8707;DHT22;4390;49.302;9.306;2022-12-29T09:26:00;10.10;91.80
8707;DHT22;4390;49.302;9.306;2022-12-29T09:28:27;10.00;92.10
8707;DHT22;4390;49.302;9.306;2022-12-29T09:30:56;9.80;92.40
8707;DHT22;4390;49.302;9.306;2022-12-29T09:33:23;9.90;92.40
8707;DHT22;4390;49.302;9.306;2022-12-29T09:35:52;10.00;92.40
8707;DHT22;4390;49.302;9.306;2022-12-29T09:38:19;10.10;92.10
8707;DHT22;4390;49.302;9.306;2022-12-29T09:41:52;10.20;91.70
8707;DHT22;4390;49.302;9.306;2022-12-29T09:44:02;10.30;91.30
8707;DHT22;4390;49.302;9.306;2022-12-29T09:46:45;10.30;91.30
8707;DHT22;4390;49.302;9.306;2022-12-29T09:49:24;10.50;91.30
8707;DHT22;4390;49.302;9.306;2022-12-29T09:51:54;10.60;91.00
8707;DHT22;4390;49.302;9.306;2022-12-29T09:54:58;10.60;90.90
8707;DHT22;4390;49.302;9.306;2022-12-29T09:57:42;10.50;91.30
8707;DHT22;4390;49.302;9.306;2022-12-29T10:00:17;10.50;90.90
8707;DHT22;4390;49.302;9.306;2022-12-29T10:02:50;10.40;91.60
8707;DHT22;4390;49.302;9.306;2022-12-29T10:10:59;10.40;92.80
8707;DHT22;4390;49.302;9.306;2022-12-29T10:13:50;10.40;93.60
8707;DHT22;4390;49.302;9.306;2022-12-29T10:19:17;10.40;94.20
8707;DHT22;4390;49.302;9.306;2022-12-29T10:22:07;10.30;94.30
8707;DHT22;4390;49.302;9.306;2022-12-29T10:24:39;10.30;94.60
8707;DHT22;4390;49.302;9.306;2022-12-29T10:27:11;10.30;95.40
8707;DHT22;4390;49.302;9.306;2022-12-29T10:29:48;10.20;95.50
8707;DHT22;4390;49.302;9.306;2022-12-29T10:32:29;10.00;96.50
8707;DHT22;4390;49.302;9.306;2022-12-29T10:35:09;9.80;97.30
8707;DHT22;4390;49.302;9.306;2022-12-29T10:40:31;9.90;97.50
8707;DHT22;4390;49.302;9.306;2022-12-29T10:43:00;10.50;97.00
8707;DHT22;4390;49.302;9.306;2022-12-29T10:45:30;10.70;96.10
8707;DHT22;4390;49.302;9.306;2022-12-29T10:48:18;10.90;95.30
8707;DHT22;4390;49.302;9.306;2022-12-29T10:50:47;10.60;96.10
8707;DHT22;4390;49.302;9.306;2022-12-29T10:53:23;10.80;95.60
8707;DHT22;4390;49.302;9.306;2022-12-29T10:55:51;10.50;95.00
8707;DHT22;4390;49.302;9.306;2022-12-29T10:58:19;10.50;95.50
8707;DHT22;4390;49.302;9.306;2022-12-29T11:00:51;10.50;95.80
8707;DHT22;4390;49.302;9.306;2022-12-29T11:03:40;10.70;95.60
8707;DHT22;4390;49.302;9.306;2022-12-29T11:06:21;11.30;95.00
8707;DHT22;4390;49.302;9.306;2022-12-29T11:08:57;11.70;92.60
8707;DHT22;4390;49.302;9.306;2022-12-29T11:11:33;11.30;92.90
8707;DHT22;4390;49.302;9.306;2022-12-29T11:14:13;10.90;93.10
8707;DHT22;4390;49.302;9.306;2022-12-29T11:16:41;10.60;94.60
8707;DHT22;4390;49.302;9.306;2022-12-29T11:19:29;10.60;94.70
8707;DHT22;4390;49.302;9.306;2022-12-29T11:24:50;10.50;95.40
8707;DHT22;4390;49.302;9.306;2022-12-29T11:27:35;10.50;95.70
8707;DHT22;4390;49.302;9.306;2022-12-29T11:30:02;10.30;96.20
8707;DHT22;4390;49.302;9.306;2022-12-29T11:32:53;10.10;97.60
8707;DHT22;4390;49.302;9.306;2022-12-29T11:38:39;9.80;98.30
8707;DHT22;4390;49.302;9.306;2022-12-29T11:41:12;10.20;98.30
8707;DHT22;4390;49.302;9.306;2022-12-29T11:43:46;10.50;98.30
8707;DHT22;4390;49.302;9.306;2022-12-29T11:46:17;10.40;98.30
8707;DHT22;4390;49.302;9.306;2022-12-29T11:48:46;10.30;98.30
8707;DHT22;4390;49.302;9.306;2022-12-29T11:51:22;10.10;98.30
8707;DHT22;4390;49.302;9.306;2022-12-29T11:53:54;10.20;98.30
8707;DHT22;4390;49.302;9.306;2022-12-29T11:56:36;10.40;98.30
8707;DHT22;4390;49.302;9.306;2022-12-29T11:59:38;10.60;97.90
8707;DHT22;4390;49.302;9.306;2022-12-29T12:02:44;10.90;97.50
8707;DHT22;4390;49.302;9.306;2022-12-29T12:07:44;11.20;95.90
8707;DHT22;4390;49.302;9.306;2022-12-29T12:10:22;11.10;96.60
8707;DHT22;4390;49.302;9.306;2022-12-29T12:15:41;11.40;95.70
8707;DHT22;4390;49.302;9.306;2022-12-29T12:18:44;11.30;95.30
8707;DHT22;4390;49.302;9.306;2022-12-29T12:21:50;11.10;95.70
8707;DHT22;4390;49.302;9.306;2022-12-29T12:32:22;11.90;93.90
8707;DHT22;4390;49.302;9.306;2022-12-29T12:34:50;12.30;93.20
8707;DHT22;4390;49.302;9.306;2022-12-29T12:37:33;12.60;92.00
8707;DHT22;4390;49.302;9.306;2022-12-29T12:59:58;11.80;92.50
8707;DHT22;4390;49.302;9.306;2022-12-29T13:08:49;11.20;94.90
8707;DHT22;4390;49.302;9.306;2022-12-29T13:11:33;10.90;95.60
8707;DHT22;4390;49.302;9.306;2022-12-29T13:19:34;11.20;94.90
8707;DHT22;4390;49.302;9.306;2022-12-29T13:28:09;11.70;93.30
8707;DHT22;4390;49.302;9.306;2022-12-29T13:36:05;12.10;92.50
8707;DHT22;4390;49.302;9.306;2022-12-29T13:38:44;12.20;92.00
8707;DHT22;4390;49.302;9.306;2022-12-29T13:41:33;12.40;92.20
8707;DHT22;4390;49.302;9.306;2022-12-29T13:44:03;12.70;91.30
8707;DHT22;4390;49.302;9.306;2022-12-29T13:46:37;12.70;89.70
8707;DHT22;4390;49.302;9.306;2022-12-29T13:49:11;12.50;90.00
8707;DHT22;4390;49.302;9.306;2022-12-29T13:51:47;12.30;89.60
8707;DHT22;4390;49.302;9.306;2022-12-29T13:54:29;12.00;89.60
8707;DHT22;4390;49.302;9.306;2022-12-29T13:59:56;11.30;90.50
8707;DHT22;4390;49.302;9.306;2022-12-29T14:07:48;10.80;92.40
8707;DHT22;4390;49.302;9.306;2022-12-29T14:10:36;10.80;92.30
8707;DHT22;4390;49.302;9.306;2022-12-29T14:13:24;10.90;92.70
8707;DHT22;4390;49.302;9.306;2022-12-29T14:15:57;11.10;92.10
8707;DHT22;4390;49.302;9.306;2022-12-29T14:18:30;11.10;92.20
8707;DHT22;4390;49.302;9.306;2022-12-29T14:21:41;11.30;92.00
8707;DHT22;4390;49.302;9.306;2022-12-29T14:35:00;10.50;95.80
8707;DHT22;4390;49.302;9.306;2022-12-29T14:40:15;10.20;97.80
8707;DHT22;4390;49.302;9.306;2022-12-29T14:42:47;9.90;98.30
8707;DHT22;4390;49.302;9.306;2022-12-29T14:47:43;9.70;98.30
8707;DHT22;4390;49.302;9.306;2022-12-29T14:50:15;9.70;98.30
8707;DHT22;4390;49.302;9.306;2022-12-29T14:52:57;9.90;98.30
8707;DHT22;4390;49.302;9.306;2022-12-29T14:55:47;9.80;98.30
8707;DHT22;4390;49.302;9.306;2022-12-29T14:58:29;9.50;98.30
8707;DHT22;4390;49.302;9.306;2022-12-29T15:00:58;9.40;98.30
8707;DHT22;4390;49.302;9.306;2022-12-29T15:03:32;9.50;98.30
8707;DHT22;4390;49.302;9.306;2022-12-29T15:06:07;9.60;98.30
8707;DHT22;4390;49.302;9.306;2022-12-29T15:08:52;9.50;98.30
8707;DHT22;4390;49.302;9.306;2022-12-29T15:16:56;9.00;98.30
8707;DHT22;4390;49.302;9.306;2022-12-29T15:19:24;9.00;98.30
8707;DHT22;4390;49.302;9.306;2022-12-29T15:21:53;9.10;98.30
8707;DHT22;4390;49.302;9.306;2022-12-29T15:24:20;9.00;98.30
8707;DHT22;4390;49.302;9.306;2022-12-29T15:26:50;8.70;98.30
8707;DHT22;4390;49.302;9.306;2022-12-29T15:29:37;8.50;98.30
8707;DHT22;4390;49.302;9.306;2022-12-29T15:32:26;8.60;98.30
8707;DHT22;4390;49.302;9.306;2022-12-29T15:35:00;8.70;98.30
8707;DHT22;4390;49.302;9.306;2022-12-29T15:37:41;8.50;98.30
8707;DHT22;4390;49.302;9.306;2022-12-29T15:40:28;8.50;98.30
8707;DHT22;4390;49.302;9.306;2022-12-29T15:43:26;8.50;98.30
8707;DHT22;4390;49.302;9.306;2022-12-29T15:45:54;8.50;98.30
8707;DHT22;4390;49.302;9.306;2022-12-29T15:48:23;8.70;98.30
8707;DHT22;4390;49.302;9.306;2022-12-29T15:50:51;8.70;98.30
8707;DHT22;4390;49.302;9.306;2022-12-29T15:53:27;8.90;98.30
8707;DHT22;4390;49.302;9.306;2022-12-29T15:55:59;8.90;98.30
8707;DHT22;4390;49.302;9.306;2022-12-29T15:58:31;8.90;98.30
8707;DHT22;4390;49.302;9.306;2022-12-29T16:01:15;8.90;98.30
8707;DHT22;4390;49.302;9.306;2022-12-29T16:03:43;8.70;98.30
8707;DHT22;4390;49.302;9.306;2022-12-29T16:09:46;9.10;98.30
8707;DHT22;4390;49.302;9.306;2022-12-29T16:11:51;9.20;98.30
8707;DHT22;4390;49.302;9.306;2022-12-29T16:14:24;9.30;98.30
8707;DHT22;4390;49.302;9.306;2022-12-29T16:16:57;9.60;98.30
8707;DHT22;4390;49.302;9.306;2022-12-29T16:19:33;9.60;98.30
8707;DHT22;4390;49.302;9.306;2022-12-29T16:22:02;9.70;98.30
8707;DHT22;4390;49.302;9.306;2022-12-29T16:24:33;9.60;98.30
8707;DHT22;4390;49.302;9.306;2022-12-29T16:27:22;9.70;98.30
8707;DHT22;4390;49.302;9.306;2022-12-29T16:29:53;9.80;98.30
8707;DHT22;4390;49.302;9.306;2022-12-29T16:32:29;9.70;98.30
8707;DHT22;4390;49.302;9.306;2022-12-29T16:35:22;9.40;98.30
8707;DHT22;4390;49.302;9.306;2022-12-29T16:38:20;9.20;98.30
8707;DHT22;4390;49.302;9.306;2022-12-29T16:40:58;9.10;98.30
8707;DHT22;4390;49.302;9.306;2022-12-29T16:43:26;8.90;98.30
8707;DHT22;4390;49.302;9.306;2022-12-29T16:48:21;8.80;98.30
8707;DHT22;4390;49.302;9.306;2022-12-29T16:50:50;8.70;98.30
8707;DHT22;4390;49.302;9.306;2022-12-29T16:53:25;8.60;98.30
8707;DHT22;4390;49.302;9.306;2022-12-29T16:55:54;8.50;98.30
8707;DHT22;4390;49.302;9.306;2022-12-29T16:58:26;8.40;98.30
8707;DHT22;4390;49.302;9.306;2022-12-29T17:01:03;8.40;98.30
8707;DHT22;4390;49.302;9.306;2022-12-29T17:03:43;8.50;98.30
8707;DHT22;4390;49.302;9.306;2022-12-29T17:06:19;8.30;98.30
8707;DHT22;4390;49.302;9.306;2022-12-29T17:08:46;8.10;98.30
8707;DHT22;4390;49.302;9.306;2022-12-29T17:16:56;8.00;98.30
8707;DHT22;4390;49.302;9.306;2022-12-29T17:19:33;8.00;98.30
8707;DHT22;4390;49.302;9.306;2022-12-29T17:22:01;8.20;98.30
8707;DHT22;4390;49.302;9.306;2022-12-29T17:24:28;8.20;98.30
8707;DHT22;4390;49.302;9.306;2022-12-29T17:26:57;8.30;98.30
8707;DHT22;4390;49.302;9.306;2022-12-29T17:29:30;8.40;98.30
8707;DHT22;4390;49.302;9.306;2022-12-29T17:31:59;8.40;98.30
8707;DHT22;4390;49.302;9.306;2022-12-29T17:34:26;8.30;98.30
8707;DHT22;4390;49.302;9.306;2022-12-29T17:36:53;8.30;98.30
8707;DHT22;4390;49.302;9.306;2022-12-29T17:39:20;8.30;98.30
8707;DHT22;4390;49.302;9.306;2022-12-29T17:41:47;8.40;98.30
8707;DHT22;4390;49.302;9.306;2022-12-29T17:44:18;8.30;98.30
8707;DHT22;4390;49.302;9.306;2022-12-29T17:46:46;8.40;98.30
8707;DHT22;4390;49.302;9.306;2022-12-29T17:49:15;8.50;98.30
8707;DHT22;4390;49.302;9.306;2022-12-29T17:51:43;8.50;98.30
8707;DHT22;4390;49.302;9.306;2022-12-29T17:54:19;8.60;98.30
8707;DHT22;4390;49.302;9.306;2022-12-29T17:56:50;8.50;98.30
8707;DHT22;4390;49.302;9.306;2022-12-29T17:59:18;8.60;98.30
8707;DHT22;4390;49.302;9.306;2022-12-29T18:01:46;8.60;98.30
8707;DHT22;4390;49.302;9.306;2022-12-29T18:04:16;8.60;98.30
8707;DHT22;4390;49.302;9.306;2022-12-29T18:06:43;8.60;98.30
8707;DHT22;4390;49.302;9.306;2022-12-29T18:09:12;8.50;98.30
8707;DHT22;4390;49.302;9.306;2022-12-29T18:11:41;8.40;98.30
8707;DHT22;4390;49.302;9.306;2022-12-29T18:14:13;8.40;98.30
8707;DHT22;4390;49.302;9.306;2022-12-29T18:16:41;8.20;98.30
8707;DHT22;4390;49.302;9.306;2022-12-29T18:19:24;8.10;98.30
8707;DHT22;4390;49.302;9.306;2022-12-29T18:21:56;8.20;98.30
8707;DHT22;4390;49.302;9.306;2022-12-29T18:24:23;8.30;98.30
8707;DHT22;4390;49.302;9.306;2022-12-29T18:26:50;8.40;98.30
8707;DHT22;4390;49.302;9.306;2022-12-29T18:29:17;8.40;98.30
8707;DHT22;4390;49.302;9.306;2022-12-29T18:31:43;8.40;98.30
8707;DHT22;4390;49.302;9.306;2022-12-29T18:34:13;8.60;98.30
8707;DHT22;4390;49.302;9.306;2022-12-29T18:36:40;8.60;98.30
8707;DHT22;4390;49.302;9.306;2022-12-29T18:39:07;8.50;98.30
8707;DHT22;4390;49.302;9.306;2022-12-29T18:41:34;8.50;98.30
8707;DHT22;4390;49.302;9.306;2022-12-29T18:44:00;8.70;98.30
8707;DHT22;4390;49.302;9.306;2022-12-29T18:46:27;8.70;98.30
8707;DHT22;4390;49.302;9.306;2022-12-29T18:48:55;8.70;98.30
8707;DHT22;4390;49.302;9.306;2022-12-29T18:51:23;8.70;98.30
8707;DHT22;4390;49.302;9.306;2022-12-29T18:53:51;8.60;98.30
8707;DHT22;4390;49.302;9.306;2022-12-29T18:56:19;8.60;98.30
8707;DHT22;4390;49.302;9.306;2022-12-29T18:58:48;8.80;98.30
8707;DHT22;4390;49.302;9.306;2022-12-29T19:01:29;9.00;98.30
8707;DHT22;4390;49.302;9.306;2022-12-29T19:04:14;9.00;98.30
8707;DHT22;4390;49.302;9.306;2022-12-29T19:06:41;9.10;98.30
8707;DHT22;4390;49.302;9.306;2022-12-29T19:09:08;9.20;98.30
8707;DHT22;4390;49.302;9.306;2022-12-29T19:11:35;9.20;98.30
8707;DHT22;4390;49.302;9.306;2022-12-29T19:14:02;9.10;98.30